sensor_id;sensor_type;location;lat;lon;timestamp;pressure;altitude;pressure_sealevel;temperature;humidity
80927;BME280;70385;44.538;18.532;2024-02-15T00:01:40;100319.66;;;-0.65;100.00
80927;BME280;70385;44.538;18.532;2024-02-15T00:04:08;100324.03;;;-0.58;100.00
80927;BME280;70385;44.538;18.532;2024-02-15T00:06:36;100322.28;;;-0.61;100.00
80927;BME280;70385;44.538;18.532;2024-02-15T00:09:02;100318.00;;;-0.60;100.00
80927;BME280;70385;44.538;18.532;2024-02-15T00:11:28;100309.59;;;-0.50;100.00
80927;BME280;70385;44.538;18.532;2024-02-15T00:13:58;100308.03;;;-0.39;100.00
80927;BME280;70385;44.538;18.532;2024-02-15T00:16:26;100299.56;;;-0.35;100.00
80927;BME280;70385;44.538;18.532;2024-02-15T00:18:53;100306.53;;;-0.24;100.00
80927;BME280;70385;44.538;18.532;2024-02-15T00:21:23;100309.03;;;-0.31;100.00
80927;BME280;70385;44.538;18.532;2024-02-15T00:23:50;100314.22;;;-0.26;100.00
80927;BME280;70385;44.538;18.532;2024-02-15T00:26:16;100315.84;;;-0.34;100.00
80927;BME280;70385;44.538;18.532;2024-02-15T00:28:42;100307.25;;;-0.36;100.00
80927;BME280;70385;44.538;18.532;2024-02-15T00:31:08;100313.34;;;-0.29;100.00
80927;BME280;70385;44.538;18.532;2024-02-15T00:33:35;100308.94;;;-0.37;100.00
80927;BME280;70385;44.538;18.532;2024-02-15T00:36:04;100316.66;;;-0.37;100.00
80927;BME280;70385;44.538;18.532;2024-02-15T00:38:55;100316.75;;;-0.31;100.00
80927;BME280;70385;44.538;18.532;2024-02-15T00:41:21;100315.91;;;-0.29;100.00
80927;BME280;70385;44.538;18.532;2024-02-15T00:43:48;100309.72;;;-0.42;100.00
80927;BME280;70385;44.538;18.532;2024-02-15T00:46:17;100306.28;;;-0.43;100.00
80927;BME280;70385;44.538;18.532;2024-02-15T00:48:43;100319.34;;;-0.27;100.00
80927;BME280;70385;44.538;18.532;2024-02-15T00:51:29;100310.69;;;-0.36;100.00
80927;BME280;70385;44.538;18.532;2024-02-15T00:53:59;100309.84;;;-0.35;100.00
80927;BME280;70385;44.538;18.532;2024-02-15T00:56:29;100309.88;;;-0.32;100.00
80927;BME280;70385;44.538;18.532;2024-02-15T00:59:01;100315.06;;;-0.28;100.00
80927;BME280;70385;44.538;18.532;2024-02-15T01:01:29;100302.19;;;-0.30;100.00
80927;BME280;70385;44.538;18.532;2024-02-15T01:03:58;100304.69;;;-0.35;100.00
80927;BME280;70385;44.538;18.532;2024-02-15T01:06:24;100304.69;;;-0.35;100.00
80927;BME280;70385;44.538;18.532;2024-02-15T01:08:49;100306.44;;;-0.32;100.00
80927;BME280;70385;44.538;18.532;2024-02-15T01:11:15;100305.66;;;-0.26;100.00
80927;BME280;70385;44.538;18.532;2024-02-15T01:13:42;100308.38;;;-0.17;100.00
80927;BME280;70385;44.538;18.532;2024-02-15T01:16:09;100309.09;;;-0.24;100.00
80927;BME280;70385;44.538;18.532;2024-02-15T01:18:35;100305.63;;;-0.28;100.00
80927;BME280;70385;44.538;18.532;2024-02-15T01:21:01;100303.84;;;-0.34;100.00
80927;BME280;70385;44.538;18.532;2024-02-15T01:23:27;100298.69;;;-0.35;100.00
80927;BME280;70385;44.538;18.532;2024-02-15T01:25:53;100299.44;;;-0.41;100.00
80927;BME280;70385;44.538;18.532;2024-02-15T01:28:20;100301.94;;;-0.45;100.00
80927;BME280;70385;44.538;18.532;2024-02-15T01:30:49;100301.06;;;-0.49;100.00
80927;BME280;70385;44.538;18.532;2024-02-15T01:33:18;100306.84;;;-0.62;100.00
80927;BME280;70385;44.538;18.532;2024-02-15T01:35:45;100302.53;;;-0.63;100.00
80927;BME280;70385;44.538;18.532;2024-02-15T01:38:20;100297.44;;;-0.60;100.00
80927;BME280;70385;44.538;18.532;2024-02-15T01:40:50;100291.28;;;-0.73;100.00
80927;BME280;70385;44.538;18.532;2024-02-15T01:43:17;100286.94;;;-0.75;100.00
80927;BME280;70385;44.538;18.532;2024-02-15T01:45:43;100293.91;;;-0.67;100.00
80927;BME280;70385;44.538;18.532;2024-02-15T01:48:16;100291.19;;;-0.77;100.00
80927;BME280;70385;44.538;18.532;2024-02-15T01:50:48;100278.19;;;-0.86;100.00
80927;BME280;70385;44.538;18.532;2024-02-15T01:53:17;100283.53;;;-0.74;100.00
80927;BME280;70385;44.538;18.532;2024-02-15T01:55:44;100280.00;;;-0.79;100.00
80927;BME280;70385;44.538;18.532;2024-02-15T01:58:10;100272.38;;;-0.76;100.00
80927;BME280;70385;44.538;18.532;2024-02-15T02:00:45;100275.81;;;-0.74;100.00
80927;BME280;70385;44.538;18.532;2024-02-15T02:03:14;100280.03;;;-0.78;100.00
80927;BME280;70385;44.538;18.532;2024-02-15T02:05:42;100274.81;;;-0.82;100.00
80927;BME280;70385;44.538;18.532;2024-02-15T02:10:55;100270.50;;;-0.85;100.00
80927;BME280;70385;44.538;18.532;2024-02-15T02:13:27;100289.38;;;-0.83;100.00
80927;BME280;70385;44.538;18.532;2024-02-15T02:15:56;100280.69;;;-0.91;100.00
80927;BME280;70385;44.538;18.532;2024-02-15T02:18:22;100277.13;;;-0.99;100.00
80927;BME280;70385;44.538;18.532;2024-02-15T02:20:54;100285.78;;;-0.94;100.00
80927;BME280;70385;44.538;18.532;2024-02-15T02:23:23;100290.78;;;-1.02;100.00
80927;BME280;70385;44.538;18.532;2024-02-15T02:25:55;100283.84;;;-1.07;100.00
80927;BME280;70385;44.538;18.532;2024-02-15T02:28:21;100294.75;;;-1.19;100.00
80927;BME280;70385;44.538;18.532;2024-02-15T02:30:48;100290.47;;;-1.20;100.00
80927;BME280;70385;44.538;18.532;2024-02-15T02:33:14;100295.59;;;-1.22;100.00
80927;BME280;70385;44.538;18.532;2024-02-15T02:35:44;100300.69;;;-1.23;100.00
80927;BME280;70385;44.538;18.532;2024-02-15T02:38:14;100294.75;;;-1.20;100.00
80927;BME280;70385;44.538;18.532;2024-02-15T02:40:41;100302.47;;;-1.19;100.00
80927;BME280;70385;44.538;18.532;2024-02-15T02:43:07;100302.34;;;-1.27;100.00
80927;BME280;70385;44.538;18.532;2024-02-15T02:45:33;100304.91;;;-1.27;100.00
80927;BME280;70385;44.538;18.532;2024-02-15T02:47:59;100302.44;;;-1.20;100.00
80927;BME280;70385;44.538;18.532;2024-02-15T02:50:25;100301.72;;;-1.13;100.00
80927;BME280;70385;44.538;18.532;2024-02-15T02:52:52;100304.31;;;-1.13;100.00
80927;BME280;70385;44.538;18.532;2024-02-15T02:55:18;100302.59;;;-1.13;100.00
80927;BME280;70385;44.538;18.532;2024-02-15T02:57:44;100313.72;;;-1.12;100.00
80927;BME280;70385;44.538;18.532;2024-02-15T03:00:12;100317.03;;;-1.18;100.00
80927;BME280;70385;44.538;18.532;2024-02-15T03:02:41;100320.44;;;-1.19;100.00
80927;BME280;70385;44.538;18.532;2024-02-15T03:05:08;100323.00;;;-1.19;100.00
80927;BME280;70385;44.538;18.532;2024-02-15T03:07:34;100320.41;;;-1.22;100.00
80927;BME280;70385;44.538;18.532;2024-02-15T03:10:01;100323.81;;;-1.22;100.00
80927;BME280;70385;44.538;18.532;2024-02-15T03:12:29;100323.66;;;-1.32;100.00
80927;BME280;70385;44.538;18.532;2024-02-15T03:14:55;100314.97;;;-1.37;100.00
80927;BME280;70385;44.538;18.532;2024-02-15T03:17:25;100319.34;;;-1.33;100.00
80927;BME280;70385;44.538;18.532;2024-02-15T03:19:51;100332.25;;;-1.30;100.00
80927;BME280;70385;44.538;18.532;2024-02-15T03:22:20;100318.50;;;-1.32;100.00
80927;BME280;70385;44.538;18.532;2024-02-15T03:24:48;100319.47;;;-1.27;100.00
80927;BME280;70385;44.538;18.532;2024-02-15T03:27:17;100321.22;;;-1.25;100.00
80927;BME280;70385;44.538;18.532;2024-02-15T03:29:47;100315.44;;;-1.13;100.00
80927;BME280;70385;44.538;18.532;2024-02-15T03:32:14;100318.94;;;-1.08;100.00
80927;BME280;70385;44.538;18.532;2024-02-15T03:34:43;100320.41;;;-1.22;100.00
80927;BME280;70385;44.538;18.532;2024-02-15T03:37:09;100318.63;;;-1.25;100.00
80927;BME280;70385;44.538;18.532;2024-02-15T03:39:35;100314.38;;;-1.24;100.00
80927;BME280;70385;44.538;18.532;2024-02-15T03:42:02;100333.25;;;-1.20;100.00
80927;BME280;70385;44.538;18.532;2024-02-15T03:44:29;100327.16;;;-1.27;100.00
80927;BME280;70385;44.538;18.532;2024-02-15T03:46:59;100328.03;;;-1.27;100.00
80927;BME280;70385;44.538;18.532;2024-02-15T03:49:28;100327.16;;;-1.27;100.00
80927;BME280;70385;44.538;18.532;2024-02-15T03:51:54;100326.25;;;-1.29;100.00
80927;BME280;70385;44.538;18.532;2024-02-15T03:54:23;100328.09;;;-1.22;100.00
80927;BME280;70385;44.538;18.532;2024-02-15T03:56:50;100333.19;;;-1.25;100.00
80927;BME280;70385;44.538;18.532;2024-02-15T03:59:21;100332.28;;;-1.27;100.00
80927;BME280;70385;44.538;18.532;2024-02-15T04:01:54;100336.47;;;-1.34;100.00
80927;BME280;70385;44.538;18.532;2024-02-15T04:04:20;100335.38;;;-1.45;100.00
80927;BME280;70385;44.538;18.532;2024-02-15T04:06:50;100328.38;;;-1.54;100.00
80927;BME280;70385;44.538;18.532;2024-02-15T04:09:19;100330.03;;;-1.56;100.00
80927;BME280;70385;44.538;18.532;2024-02-15T04:11:47;100329.06;;;-1.61;100.00
80927;BME280;70385;44.538;18.532;2024-02-15T04:14:16;100334.19;;;-1.62;100.00
80927;BME280;70385;44.538;18.532;2024-02-15T04:16:44;100336.03;;;-1.55;100.00
80927;BME280;70385;44.538;18.532;2024-02-15T04:19:11;100338.75;;;-1.47;100.00
80927;BME280;70385;44.538;18.532;2024-02-15T04:21:37;100337.09;;;-1.44;100.00
80927;BME280;70385;44.538;18.532;2024-02-15T04:24:04;100330.09;;;-1.52;100.00
80927;BME280;70385;44.538;18.532;2024-02-15T04:26:31;100328.44;;;-1.50;100.00
80927;BME280;70385;44.538;18.532;2024-02-15T04:29:03;100326.72;;;-1.50;100.00
80927;BME280;70385;44.538;18.532;2024-02-15T04:31:36;100330.38;;;-1.37;100.00
80927;BME280;70385;44.538;18.532;2024-02-15T04:34:05;100334.81;;;-1.30;100.00
80927;BME280;70385;44.538;18.532;2024-02-15T04:36:31;100327.16;;;-1.27;100.00
80927;BME280;70385;44.538;18.532;2024-02-15T04:39:00;100328.13;;;-1.20;100.00
80927;BME280;70385;44.538;18.532;2024-02-15T04:41:29;100330.84;;;-1.13;100.00
80927;BME280;70385;44.538;18.532;2024-02-15T04:43:55;100330.06;;;-1.07;100.00
80927;BME280;70385;44.538;18.532;2024-02-15T04:46:22;100329.16;;;-1.12;100.00
80927;BME280;70385;44.538;18.532;2024-02-15T04:48:50;100323.84;;;-1.20;100.00
80927;BME280;70385;44.538;18.532;2024-02-15T04:51:22;100330.03;;;-1.10;100.00
80927;BME280;70385;44.538;18.532;2024-02-15T04:54:04;100323.84;;;-1.20;100.00
80927;BME280;70385;44.538;18.532;2024-02-15T04:56:30;100324.75;;;-1.16;100.00
80927;BME280;70385;44.538;18.532;2024-02-15T04:58:58;100318.91;;;-1.09;100.00
80927;BME280;70385;44.538;18.532;2024-02-15T05:01:24;100323.22;;;-1.08;100.00
80927;BME280;70385;44.538;18.532;2024-02-15T05:03:50;100324.13;;;-1.05;100.00
80927;BME280;70385;44.538;18.532;2024-02-15T05:06:16;100337.91;;;-1.00;100.00
80927;BME280;70385;44.538;18.532;2024-02-15T05:08:50;100330.97;;;-1.05;100.00
80927;BME280;70385;44.538;18.532;2024-02-15T05:11:44;100325.00;;;-1.04;100.00
80927;BME280;70385;44.538;18.532;2024-02-15T05:14:16;100325.06;;;-1.00;100.00
80927;BME280;70385;44.538;18.532;2024-02-15T05:16:46;100315.81;;;-0.92;100.00
80927;BME280;70385;44.538;18.532;2024-02-15T05:19:14;100320.91;;;-0.95;100.00
80927;BME280;70385;44.538;18.532;2024-02-15T05:21:41;100319.28;;;-0.88;100.00
80927;BME280;70385;44.538;18.532;2024-02-15T05:24:10;100318.66;;;-0.75;100.00
80927;BME280;70385;44.538;18.532;2024-02-15T05:26:36;100327.31;;;-0.68;100.00
80927;BME280;70385;44.538;18.532;2024-02-15T05:29:02;100323.91;;;-0.67;100.00
80927;BME280;70385;44.538;18.532;2024-02-15T05:31:29;100317.09;;;-0.64;100.00
80927;BME280;70385;44.538;18.532;2024-02-15T05:33:55;100319.72;;;-0.59;100.00
80927;BME280;70385;44.538;18.532;2024-02-15T05:36:21;100323.25;;;-0.54;100.00
80927;BME280;70385;44.538;18.532;2024-02-15T05:38:53;100319.88;;;-0.51;100.00
80927;BME280;70385;44.538;18.532;2024-02-15T05:41:22;100303.59;;;-0.50;100.00
80927;BME280;70385;44.538;18.532;2024-02-15T05:43:50;100304.59;;;-0.41;100.00
80927;BME280;70385;44.538;18.532;2024-02-15T05:46:18;100298.66;;;-0.37;100.00
80927;BME280;70385;44.538;18.532;2024-02-15T05:48:50;100305.63;;;-0.28;100.00
80927;BME280;70385;44.538;18.532;2024-02-15T05:51:17;100311.44;;;-0.40;100.00
80927;BME280;70385;44.538;18.532;2024-02-15T05:53:46;100312.25;;;-0.45;100.00
80927;BME280;70385;44.538;18.532;2024-02-15T05:56:12;100328.75;;;-0.31;100.00
80927;BME280;70385;44.538;18.532;2024-02-15T05:58:40;100325.22;;;-0.38;100.00
80927;BME280;70385;44.538;18.532;2024-02-15T06:01:06;100336.28;;;-0.42;100.00
80927;BME280;70385;44.538;18.532;2024-02-15T06:03:39;100334.56;;;-0.43;100.00
80927;BME280;70385;44.538;18.532;2024-02-15T06:06:06;100328.69;;;-0.36;100.00
80927;BME280;70385;44.538;18.532;2024-02-15T06:08:36;100338.97;;;-0.36;100.00
80927;BME280;70385;44.538;18.532;2024-02-15T06:11:05;100343.31;;;-0.32;100.00
80927;BME280;70385;44.538;18.532;2024-02-15T06:13:35;100342.53;;;-0.24;100.00
80927;BME280;70385;44.538;18.532;2024-02-15T06:16:02;100343.38;;;-0.27;100.00
80927;BME280;70385;44.538;18.532;2024-02-15T06:18:29;100345.91;;;-0.28;100.00
80927;BME280;70385;44.538;18.532;2024-02-15T06:20:59;100345.09;;;-0.26;100.00
80927;BME280;70385;44.538;18.532;2024-02-15T06:23:32;100343.41;;;-0.24;100.00
80927;BME280;70385;44.538;18.532;2024-02-15T06:25:59;100336.69;;;-0.16;100.00
80927;BME280;70385;44.538;18.532;2024-02-15T06:28:33;100345.25;;;-0.15;100.00
80927;BME280;70385;44.538;18.532;2024-02-15T06:31:17;100356.53;;;-0.04;100.00
80927;BME280;70385;44.538;18.532;2024-02-15T06:34:01;100357.63;;;0.12;100.00
80927;BME280;70385;44.538;18.532;2024-02-15T06:36:52;100349.25;;;0.28;100.00
80927;BME280;70385;44.538;18.532;2024-02-15T06:39:37;100346.06;;;0.47;100.00
80927;BME280;70385;44.538;18.532;2024-02-15T06:42:16;100348.03;;;0.70;100.00
80927;BME280;70385;44.538;18.532;2024-02-15T06:44:48;100346.50;;;0.85;100.00
80927;BME280;70385;44.538;18.532;2024-02-15T06:47:17;100342.34;;;1.00;100.00
80927;BME280;70385;44.538;18.532;2024-02-15T06:49:46;100334.63;;;1.01;100.00
80927;BME280;70385;44.538;18.532;2024-02-15T06:52:18;100344.16;;;1.11;100.00
80927;BME280;70385;44.538;18.532;2024-02-15T06:54:50;100346.75;;;1.14;100.00
80927;BME280;70385;44.538;18.532;2024-02-15T06:57:24;100352.91;;;1.29;100.00
80927;BME280;70385;44.538;18.532;2024-02-15T07:00:12;100353.84;;;1.37;100.00
80927;BME280;70385;44.538;18.532;2024-02-15T07:03:03;100363.34;;;1.44;100.00
80927;BME280;70385;44.538;18.532;2024-02-15T07:05:30;100356.47;;;1.44;100.00
80927;BME280;70385;44.538;18.532;2024-02-15T07:07:56;100353.78;;;1.32;100.00
80927;BME280;70385;44.538;18.532;2024-02-15T07:10:28;100358.19;;;1.45;100.00
80927;BME280;70385;44.538;18.532;2024-02-15T07:13:31;100359.94;;;1.49;100.00
80927;BME280;70385;44.538;18.532;2024-02-15T07:20:00;100358.25;;;1.51;100.00
80927;BME280;70385;44.538;18.532;2024-02-15T07:26:16;100346.28;;;1.60;100.00
80927;BME280;70385;44.538;18.532;2024-02-15T07:32:40;100357.66;;;1.89;100.00
80927;BME280;70385;44.538;18.532;2024-02-15T07:35:14;100356.75;;;1.82;100.00
80927;BME280;70385;44.538;18.532;2024-02-15T07:37:53;100353.31;;;1.85;100.00
80927;BME280;70385;44.538;18.532;2024-02-15T07:40:27;100356.75;;;1.81;100.00
80927;BME280;70385;44.538;18.532;2024-02-15T07:42:59;100356.03;;;2.06;100.00
80927;BME280;70385;44.538;18.532;2024-02-15T07:45:34;100355.16;;;2.01;100.00
80927;BME280;70385;44.538;18.532;2024-02-15T07:48:04;100350.09;;;2.27;100.00
80927;BME280;70385;44.538;18.532;2024-02-15T07:50:31;100346.81;;;2.60;100.00
80927;BME280;70385;44.538;18.532;2024-02-15T07:53:17;100339.97;;;2.87;100.00
80927;BME280;70385;44.538;18.532;2024-02-15T07:55:48;100330.56;;;3.16;100.00
80927;BME280;70385;44.538;18.532;2024-02-15T07:58:27;100335.72;;;3.27;100.00
80927;BME280;70385;44.538;18.532;2024-02-15T08:01:03;100340.91;;;3.18;100.00
80927;BME280;70385;44.538;18.532;2024-02-15T08:03:34;100321.91;;;3.46;100.00
80927;BME280;70385;44.538;18.532;2024-02-15T08:06:07;100326.25;;;3.53;100.00
80927;BME280;70385;44.538;18.532;2024-02-15T08:08:43;100327.94;;;3.59;100.00
80927;BME280;70385;44.538;18.532;2024-02-15T08:14:21;100345.13;;;4.13;100.00
80927;BME280;70385;44.538;18.532;2024-02-15T08:16:47;100338.22;;;4.11;100.00
80927;BME280;70385;44.538;18.532;2024-02-15T08:19:22;100343.34;;;4.21;100.00
80927;BME280;70385;44.538;18.532;2024-02-15T08:21:51;100345.03;;;4.33;100.00
80927;BME280;70385;44.538;18.532;2024-02-15T08:24:18;100344.94;;;4.57;100.00
80927;BME280;70385;44.538;18.532;2024-02-15T08:26:44;100344.19;;;4.31;100.00
80927;BME280;70385;44.538;18.532;2024-02-15T08:29:11;100343.25;;;4.50;100.00
80927;BME280;70385;44.538;18.532;2024-02-15T08:31:39;100346.66;;;4.57;100.00
80927;BME280;70385;44.538;18.532;2024-02-15T08:34:09;100344.94;;;4.57;100.00
80927;BME280;70385;44.538;18.532;2024-02-15T08:36:43;100337.25;;;4.38;100.00
80927;BME280;70385;44.538;18.532;2024-02-15T08:39:14;100331.97;;;4.65;100.00
80927;BME280;70385;44.538;18.532;2024-02-15T08:41:50;100343.16;;;4.72;100.00
80927;BME280;70385;44.538;18.532;2024-02-15T08:44:18;100325.63;;;5.07;100.00
80927;BME280;70385;44.538;18.532;2024-02-15T08:46:53;100325.69;;;4.98;100.00
80927;BME280;70385;44.538;18.532;2024-02-15T08:49:21;100327.19;;;5.30;100.00
80927;BME280;70385;44.538;18.532;2024-02-15T08:51:51;100319.09;;;5.66;100.00
80927;BME280;70385;44.538;18.532;2024-02-15T08:54:18;100311.75;;;6.09;100.00
80927;BME280;70385;44.538;18.532;2024-02-15T08:56:49;100306.47;;;6.16;97.99
80927;BME280;70385;44.538;18.532;2024-02-15T08:59:21;100302.31;;;6.01;98.43
80927;BME280;70385;44.538;18.532;2024-02-15T09:01:53;100309.13;;;6.11;98.72
80927;BME280;70385;44.538;18.532;2024-02-15T09:04:23;100306.34;;;6.26;98.41
80927;BME280;70385;44.538;18.532;2024-02-15T09:07:02;100312.22;;;6.44;96.42
80927;BME280;70385;44.538;18.532;2024-02-15T09:09:33;100314.16;;;6.25;95.73
80927;BME280;70385;44.538;18.532;2024-02-15T09:12:02;100304.34;;;6.48;94.99
80927;BME280;70385;44.538;18.532;2024-02-15T09:14:32;100303.38;;;6.54;93.41
80927;BME280;70385;44.538;18.532;2024-02-15T09:17:11;100305.09;;;6.58;92.57
80927;BME280;70385;44.538;18.532;2024-02-15T09:19:48;100303.22;;;6.67;93.04
80927;BME280;70385;44.538;18.532;2024-02-15T09:22:32;100310.09;;;6.70;93.67
80927;BME280;70385;44.538;18.532;2024-02-15T09:25:02;100305.22;;;7.09;91.44
80927;BME280;70385;44.538;18.532;2024-02-15T09:27:50;100304.75;;;7.38;89.66
80927;BME280;70385;44.538;18.532;2024-02-15T09:30:24;100302.31;;;7.27;88.61
80927;BME280;70385;44.538;18.532;2024-02-15T09:32:58;100306.22;;;7.00;88.58
80927;BME280;70385;44.538;18.532;2024-02-15T09:35:29;100293.78;;;7.68;88.03
80927;BME280;70385;44.538;18.532;2024-02-15T09:37:58;100291.28;;;7.64;86.29
80927;BME280;70385;44.538;18.532;2024-02-15T09:40:25;100288.88;;;7.99;86.04
80927;BME280;70385;44.538;18.532;2024-02-15T09:42:55;100287.34;;;8.34;83.84
80927;BME280;70385;44.538;18.532;2024-02-15T09:45:30;100283.19;;;8.65;82.20
80927;BME280;70385;44.538;18.532;2024-02-15T09:48:05;100283.16;;;9.04;78.97
80927;BME280;70385;44.538;18.532;2024-02-15T09:50:39;100285.66;;;8.71;76.88
80927;BME280;70385;44.538;18.532;2024-02-15T09:53:28;100273.50;;;9.09;76.49
80927;BME280;70385;44.538;18.532;2024-02-15T09:55:57;100288.72;;;8.90;75.87
80927;BME280;70385;44.538;18.532;2024-02-15T09:58:30;100274.69;;;8.94;76.13
80927;BME280;70385;44.538;18.532;2024-02-15T10:01:12;100281.66;;;8.94;77.02
80927;BME280;70385;44.538;18.532;2024-02-15T10:03:54;100278.50;;;9.17;76.48
80927;BME280;70385;44.538;18.532;2024-02-15T10:06:26;100275.28;;;9.05;75.73
80927;BME280;70385;44.538;18.532;2024-02-15T10:08:53;100277.38;;;9.28;73.43
80927;BME280;70385;44.538;18.532;2024-02-15T10:11:26;100284.81;;;9.08;73.66
80927;BME280;70385;44.538;18.532;2024-02-15T10:13:55;100281.56;;;9.34;71.92
80927;BME280;70385;44.538;18.532;2024-02-15T10:17:06;100280.25;;;9.52;72.95
80927;BME280;70385;44.538;18.532;2024-02-15T10:19:43;100276.78;;;9.84;70.19
80927;BME280;70385;44.538;18.532;2024-02-15T10:22:15;100277.88;;;9.75;71.12
80927;BME280;70385;44.538;18.532;2024-02-15T10:24:47;100277.06;;;10.06;69.66
80927;BME280;70385;44.538;18.532;2024-02-15T10:27:13;100266.59;;;10.06;69.15
80927;BME280;70385;44.538;18.532;2024-02-15T10:29:52;100273.59;;;9.72;68.92
80927;BME280;70385;44.538;18.532;2024-02-15T10:32:19;100261.16;;;9.50;68.52
80927;BME280;70385;44.538;18.532;2024-02-15T10:34:46;100260.59;;;9.37;70.87
80927;BME280;70385;44.538;18.532;2024-02-15T10:37:37;100252.72;;;9.38;69.41
80927;BME280;70385;44.538;18.532;2024-02-15T10:40:08;100254.13;;;9.83;68.40
80927;BME280;70385;44.538;18.532;2024-02-15T10:42:36;100250.72;;;10.12;67.71
80927;BME280;70385;44.538;18.532;2024-02-15T10:45:22;100247.88;;;10.19;65.99
80927;BME280;70385;44.538;18.532;2024-02-15T10:47:49;100241.72;;;10.22;67.36
80927;BME280;70385;44.538;18.532;2024-02-15T10:50:18;100233.97;;;10.48;66.19
80927;BME280;70385;44.538;18.532;2024-02-15T10:52:57;100223.66;;;10.44;67.54
80927;BME280;70385;44.538;18.532;2024-02-15T10:56:08;100217.19;;;10.55;64.43
80927;BME280;70385;44.538;18.532;2024-02-15T11:01:39;100205.97;;;11.06;62.85
80927;BME280;70385;44.538;18.532;2024-02-15T11:07:48;100207.91;;;11.51;63.12
80927;BME280;70385;44.538;18.532;2024-02-15T11:10:27;100201.88;;;11.49;61.05
80927;BME280;70385;44.538;18.532;2024-02-15T11:13:11;100184.91;;;11.59;62.18
80927;BME280;70385;44.538;18.532;2024-02-15T11:15:49;100189.81;;;11.68;60.00
80927;BME280;70385;44.538;18.532;2024-02-15T11:18:49;100177.53;;;11.94;59.43
80927;BME280;70385;44.538;18.532;2024-02-15T11:21:54;100186.50;;;11.88;59.76
80927;BME280;70385;44.538;18.532;2024-02-15T11:24:31;100176.66;;;12.40;58.09
80927;BME280;70385;44.538;18.532;2024-02-15T11:27:37;100177.59;;;12.39;57.55
80927;BME280;70385;44.538;18.532;2024-02-15T11:30:12;100168.91;;;12.15;55.47
80927;BME280;70385;44.538;18.532;2024-02-15T11:33:31;100178.56;;;12.58;54.65
80927;BME280;70385;44.538;18.532;2024-02-15T11:36:36;100172.19;;;12.86;54.35
80927;BME280;70385;44.538;18.532;2024-02-15T11:39:45;100168.13;;;12.99;53.89
80927;BME280;70385;44.538;18.532;2024-02-15T11:45:19;100156.03;;;12.74;54.29
80927;BME280;70385;44.538;18.532;2024-02-15T11:48:03;100151.19;;;13.06;52.25
80927;BME280;70385;44.538;18.532;2024-02-15T11:50:50;100143.72;;;12.97;51.04
80927;BME280;70385;44.538;18.532;2024-02-15T11:53:34;100147.41;;;13.13;52.69
80927;BME280;70385;44.538;18.532;2024-02-15T11:56:04;100139.06;;;13.24;52.33
80927;BME280;70385;44.538;18.532;2024-02-15T11:58:36;100147.06;;;13.61;51.80
80927;BME280;70385;44.538;18.532;2024-02-15T12:01:18;100138.97;;;14.22;50.03
80927;BME280;70385;44.538;18.532;2024-02-15T12:04:18;100134.91;;;14.34;49.07
80927;BME280;70385;44.538;18.532;2024-02-15T12:08:00;100131.25;;;13.43;47.49
80927;BME280;70385;44.538;18.532;2024-02-15T12:10:58;100127.72;;;13.62;47.43
80927;BME280;70385;44.538;18.532;2024-02-15T12:13:52;100132.84;;;13.84;47.40
80927;BME280;70385;44.538;18.532;2024-02-15T12:16:40;100128.19;;;13.33;48.43
80927;BME280;70385;44.538;18.532;2024-02-15T12:23:10;100118.69;;;13.68;49.08
80927;BME280;70385;44.538;18.532;2024-02-15T12:25:45;100122.72;;;13.38;49.55
80927;BME280;70385;44.538;18.532;2024-02-15T12:29:10;100124.41;;;12.98;50.08
80927;BME280;70385;44.538;18.532;2024-02-15T12:32:00;100121.91;;;13.56;50.07
80927;BME280;70385;44.538;18.532;2024-02-15T12:39:25;100105.16;;;13.96;48.20
80927;BME280;70385;44.538;18.532;2024-02-15T12:45:54;100105.34;;;14.10;47.47
80927;BME280;70385;44.538;18.532;2024-02-15T12:48:24;100107.69;;;13.97;50.60
80927;BME280;70385;44.538;18.532;2024-02-15T12:50:54;100102.84;;;14.07;49.77
80927;BME280;70385;44.538;18.532;2024-02-15T12:53:44;100101.03;;;14.26;49.17
80927;BME280;70385;44.538;18.532;2024-02-15T12:56:22;100091.03;;;14.16;49.01
80927;BME280;70385;44.538;18.532;2024-02-15T13:00:01;100089.50;;;13.93;49.53
80927;BME280;70385;44.538;18.532;2024-02-15T13:02:54;100093.91;;;14.11;48.86
80927;BME280;70385;44.538;18.532;2024-02-15T13:05:25;100099.59;;;14.02;48.63
80927;BME280;70385;44.538;18.532;2024-02-15T13:07:58;100098.72;;;14.02;49.42
80927;BME280;70385;44.538;18.532;2024-02-15T13:10:24;100093.13;;;13.72;49.08
80927;BME280;70385;44.538;18.532;2024-02-15T13:12:52;100086.66;;;13.97;48.59
80927;BME280;70385;44.538;18.532;2024-02-15T13:15:30;100095.81;;;13.51;50.03
80927;BME280;70385;44.538;18.532;2024-02-15T13:18:02;100095.31;;;13.62;50.51
80927;BME280;70385;44.538;18.532;2024-02-15T13:20:48;100102.13;;;13.06;51.44
80927;BME280;70385;44.538;18.532;2024-02-15T13:23:19;100091.69;;;13.25;51.20
80927;BME280;70385;44.538;18.532;2024-02-15T13:25:52;100089.06;;;13.25;51.42
80927;BME280;70385;44.538;18.532;2024-02-15T13:28:19;100078.13;;;14.11;50.12
80927;BME280;70385;44.538;18.532;2024-02-15T13:30:48;100073.13;;;14.41;49.43
80927;BME280;70385;44.538;18.532;2024-02-15T13:33:20;100072.81;;;14.30;48.78
80927;BME280;70385;44.538;18.532;2024-02-15T13:36:12;100064.25;;;14.44;49.81
80927;BME280;70385;44.538;18.532;2024-02-15T13:39:17;100067.91;;;14.22;49.63
80927;BME280;70385;44.538;18.532;2024-02-15T13:41:47;100061.09;;;14.18;50.93
80927;BME280;70385;44.538;18.532;2024-02-15T13:44:23;100073.91;;;14.07;49.83
80927;BME280;70385;44.538;18.532;2024-02-15T13:46:57;100060.47;;;14.13;51.37